Time;durP1;ratioP1;P1;durP2;ratioP2;P2;SDS_P1;SDS_P2;PMS_P1;PMS_P2;Temp;Humidity;BMP_temperature;BMP_pressure;BME280_temperature;BME280_humidity;BME280_pressure;Samples;Min_cycle;Max_cycle;Signal;HPM_P1;HPM_P2
2021/03/13 00:01:25;;;;;;;11.47;2.50;;;7.10;99.90;;;;;;5950375;24;20427;-83
2021/03/13 00:04:30;;;;;;;13.57;2.50;;;7.10;99.90;;;;;;5962291;24;20448;-83
2021/03/13 00:10:12;;;;;;;8.30;2.00;;;7.20;99.90;;;;;;5873753;24;20428;-84
2021/03/13 00:12:39;;;;;;;15.80;3.30;;;7.20;99.90;;;;;;5961545;24;20418;-82
2021/03/13 00:15:07;;;;;;;14.43;3.20;;;7.20;99.90;;;;;;6035052;23;20454;-81
2021/03/13 00:17:40;;;;;;;13.70;5.50;;;7.00;99.90;;;;;;6126871;23;20441;-82
2021/03/13 00:20:07;;;;;;;11.37;7.27;;;6.80;99.90;;;;;;6126988;23;20410;-81
2021/03/13 00:22:34;;;;;;;14.83;9.30;;;6.40;99.90;;;;;;6124706;23;20935;-81
2021/03/13 00:25:00;;;;;;;20.80;19.23;;;6.20;99.90;;;;;;6136353;23;20422;-81
2021/03/13 00:27:27;;;;;;;21.00;19.00;;;6.10;99.90;;;;;;6126281;23;20910;-81
2021/03/13 00:29:57;;;;;;;29.37;27.10;;;6.10;99.90;;;;;;6136436;23;20473;-82
2021/03/13 00:32:24;;;;;;;29.93;28.13;;;6.10;99.90;;;;;;6126784;23;20740;-81
2021/03/13 00:34:51;;;;;;;46.00;42.77;;;6.00;99.90;;;;;;6126617;23;20474;-81
2021/03/13 00:37:18;;;;;;;48.53;45.57;;;6.10;99.90;;;;;;6125347;23;20406;-82
2021/03/13 00:39:44;;;;;;;51.13;47.47;;;6.10;99.90;;;;;;6126671;23;20403;-82
2021/03/13 00:42:12;;;;;;;47.10;44.30;;;6.10;99.90;;;;;;6126581;23;20403;-81
2021/03/13 00:44:38;;;;;;;44.53;41.73;;;6.10;99.90;;;;;;6125732;23;20458;-82
2021/03/13 00:47:06;;;;;;;58.67;55.77;;;6.10;99.90;;;;;;6136684;23;20407;-82
2021/03/13 00:49:38;;;;;;;72.10;68.07;;;6.00;99.90;;;;;;6126668;23;20494;-82
2021/03/13 00:52:07;;;;;;;79.90;75.73;;;6.10;99.90;;;;;;6126455;23;20778;-82
2021/03/13 00:54:33;;;;;;;89.90;85.70;;;6.00;99.90;;;;;;6134491;23;20818;-82
2021/03/13 00:57:01;;;;;;;73.53;69.97;;;6.00;99.90;;;;;;6136323;23;20438;-81
2021/03/13 00:59:28;;;;;;;38.47;35.67;;;6.00;99.90;;;;;;6126620;23;20405;-82
2021/03/13 01:01:57;;;;;;;29.60;27.50;;;6.20;99.90;;;;;;6136290;23;20410;-81
2021/03/13 01:04:27;;;;;;;22.90;20.90;;;6.20;99.90;;;;;;6126572;23;20441;-82
2021/03/13 01:06:56;;;;;;;23.73;21.67;;;6.20;99.90;;;;;;6126531;23;20414;-82
2021/03/13 01:09:23;;;;;;;28.87;27.13;;;6.10;99.90;;;;;;6134598;23;20410;-82
2021/03/13 01:11:51;;;;;;;23.67;22.07;;;6.20;99.90;;;;;;6126388;23;20422;-82
2021/03/13 01:14:17;;;;;;;24.87;22.27;;;6.30;99.90;;;;;;6126548;23;20409;-82
2021/03/13 01:16:46;;;;;;;37.33;34.63;;;6.30;99.90;;;;;;6126384;23;20431;-81
2021/03/13 01:19:18;;;;;;;45.87;42.97;;;6.30;99.90;;;;;;6126427;23;20406;-82
2021/03/13 01:21:46;;;;;;;32.80;30.40;;;6.30;99.90;;;;;;6135614;23;20399;-82
2021/03/13 01:24:13;;;;;;;24.97;22.77;;;6.40;99.90;;;;;;6124886;23;20445;-82
2021/03/13 01:26:39;;;;;;;18.87;17.27;;;6.40;99.90;;;;;;6136270;23;20415;-82
2021/03/13 01:29:07;;;;;;;20.73;19.03;;;6.50;99.90;;;;;;6136108;23;20418;-82
2021/03/13 01:31:34;;;;;;;15.77;14.47;;;6.50;99.90;;;;;;6126352;23;20410;-82
2021/03/13 01:34:02;;;;;;;19.30;17.73;;;6.50;99.90;;;;;;6125688;23;20438;-81
2021/03/13 01:36:28;;;;;;;18.33;16.93;;;6.50;99.90;;;;;;6136263;23;20458;-82
2021/03/13 01:38:57;;;;;;;27.90;25.97;;;6.40;99.90;;;;;;6124945;23;20395;-82
2021/03/13 01:41:24;;;;;;;32.27;30.17;;;6.40;99.90;;;;;;6135858;23;20714;-82
2021/03/13 01:43:50;;;;;;;32.83;30.90;;;6.30;99.90;;;;;;6125742;23;20434;-81
2021/03/13 01:46:16;;;;;;;31.47;29.50;;;6.40;99.90;;;;;;6126251;23;20422;-82
2021/03/13 01:48:47;;;;;;;30.83;28.87;;;6.30;99.90;;;;;;6135608;23;20490;-81
2021/03/13 01:51:13;;;;;;;29.47;27.13;;;6.40;99.90;;;;;;6126423;23;20414;-81
2021/03/13 01:53:40;;;;;;;34.20;31.90;;;6.30;99.90;;;;;;6134598;23;20418;-81
2021/03/13 01:56:07;;;;;;;29.03;26.93;;;6.30;99.90;;;;;;6127271;23;20403;-81
2021/03/13 01:58:34;;;;;;;29.07;27.07;;;6.30;99.90;;;;;;6137474;23;20449;-81
2021/03/13 02:01:00;;;;;;;19.47;18.07;;;6.30;99.90;;;;;;6127977;23;20410;-82
2021/03/13 02:03:27;;;;;;;30.80;28.90;;;6.30;99.90;;;;;;6127840;23;20758;-82
2021/03/13 02:05:54;;;;;;;29.70;27.80;;;6.10;99.90;;;;;;6128162;23;20725;-81
2021/03/13 02:08:35;;;;;;;28.20;26.30;;;6.20;99.90;;;;;;6136638;23;20450;-82
2021/03/13 02:11:10;;;;;;;28.00;26.00;;;6.20;99.90;;;;;;6137848;23;20407;-82
2021/03/13 02:13:48;;;;;;;30.23;28.13;;;6.20;99.90;;;;;;6127788;23;20723;-82
2021/03/13 02:16:23;;;;;;;25.77;24.17;;;6.20;99.90;;;;;;6128012;23;20433;-82
2021/03/13 02:18:58;;;;;;;29.00;27.33;;;6.20;99.90;;;;;;6128361;23;20420;-81
2021/03/13 02:21:28;;;;;;;27.97;26.37;;;6.20;99.90;;;;;;6137874;23;20466;-81
2021/03/13 02:24:16;;;;;;;24.90;23.40;;;6.30;99.90;;;;;;6126550;23;20467;-81
2021/03/13 02:27:03;;;;;;;24.87;23.47;;;6.20;99.90;;;;;;6137448;23;20415;-81
2021/03/13 02:29:37;;;;;;;27.80;25.93;;;6.20;99.90;;;;;;6128089;23;20435;-81
2021/03/13 02:32:07;;;;;;;30.97;29.17;;;6.20;99.90;;;;;;6137474;23;20402;-82
2021/03/13 02:34:38;;;;;;;33.30;31.60;;;6.20;99.90;;;;;;6127971;23;20445;-81
2021/03/13 02:37:09;;;;;;;38.33;35.97;;;6.20;99.90;;;;;;6127620;23;20407;-81
2021/03/13 02:39:38;;;;;;;38.70;36.70;;;6.20;99.90;;;;;;6126808;23;20423;-82
2021/03/13 02:42:12;;;;;;;30.50;28.40;;;6.20;99.90;;;;;;6127927;23;20399;-82
2021/03/13 02:44:44;;;;;;;38.40;36.50;;;6.20;99.90;;;;;;6127609;23;20403;-82
2021/03/13 02:47:12;;;;;;;32.40;30.77;;;6.20;99.90;;;;;;6137243;23;20410;-82
2021/03/13 02:49:43;;;;;;;37.03;35.27;;;6.20;99.90;;;;;;6137865;23;20509;-83
2021/03/13 02:52:11;;;;;;;35.83;33.67;;;6.30;99.90;;;;;;6127839;23;20450;-82
2021/03/13 02:54:55;;;;;;;25.60;24.10;;;6.20;99.90;;;;;;6126588;23;20433;-81
2021/03/13 02:57:22;;;;;;;30.43;28.73;;;6.30;99.90;;;;;;6137214;23;20438;-81
2021/03/13 02:59:51;;;;;;;31.83;30.13;;;6.20;99.90;;;;;;6127662;23;20447;-81
2021/03/13 03:02:21;;;;;;;22.70;21.50;;;6.20;99.90;;;;;;6127098;23;20399;-82
2021/03/13 03:04:50;;;;;;;23.57;22.30;;;6.40;99.90;;;;;;6127714;23;20441;-82
2021/03/13 03:07:23;;;;;;;29.90;28.33;;;6.30;99.90;;;;;;6126298;23;20832;-81
2021/03/13 03:09:51;;;;;;;25.40;23.90;;;6.20;99.90;;;;;;6127358;23;20547;-82
2021/03/13 03:12:18;;;;;;;28.50;27.00;;;6.40;99.90;;;;;;6136948;23;20413;-82
2021/03/13 03:14:46;;;;;;;31.63;29.97;;;6.30;99.90;;;;;;6127713;23;20407;-82
2021/03/13 03:17:15;;;;;;;30.33;28.63;;;6.30;99.90;;;;;;6127562;23;20409;-82
2021/03/13 03:19:43;;;;;;;28.80;27.07;;;6.30;99.90;;;;;;6137257;23;20913;-81
2021/03/13 03:22:09;;;;;;;33.20;31.60;;;6.30;99.90;;;;;;6127064;23;20410;-81
2021/03/13 03:24:44;;;;;;;26.70;25.20;;;6.30;99.90;;;;;;6125597;23;21075;-82
2021/03/13 03:27:12;;;;;;;22.83;21.43;;;6.30;99.90;;;;;;6127627;23;20417;-82
2021/03/13 03:29:39;;;;;;;23.30;21.30;;;6.40;99.90;;;;;;6137495;23;20410;-82
2021/03/13 03:32:06;;;;;;;25.87;24.17;;;6.40;99.90;;;;;;6137166;23;20827;-82
2021/03/13 03:34:42;;;;;;;23.47;22.27;;;6.40;99.90;;;;;;6127100;23;20407;-82
2021/03/13 03:37:14;;;;;;;15.87;14.77;;;6.40;99.90;;;;;;6127538;23;20765;-82
2021/03/13 03:39:57;;;;;;;20.07;18.80;;;6.50;99.90;;;;;;6129711;23;20400;-83
2021/03/13 03:42:43;;;;;;;15.07;12.90;;;6.40;99.90;;;;;;6127161;23;20886;-83
2021/03/13 03:45:16;;;;;;;12.20;11.30;;;6.50;99.90;;;;;;6127244;23;20407;-83
2021/03/13 03:50:43;;;;;;;11.07;10.17;;;6.60;99.90;;;;;;6135544;23;20971;-83
2021/03/13 03:53:39;;;;;;;;;;;;;;;;;;;;;
2021/03/13 03:56:19;;;;;;;12.10;11.27;;;6.50;99.90;;;;;;6131151;23;20403;-83
2021/03/13 03:58:57;;;;;;;13.53;12.53;;;6.50;99.90;;;;;;6137322;23;20403;-83
2021/03/13 04:01:25;;;;;;;11.70;10.50;;;6.50;99.90;;;;;;6126852;23;20403;-79
2021/03/13 04:04:01;;;;;;;10.47;9.47;;;6.60;99.90;;;;;;6126920;23;20761;-83
2021/03/13 04:06:28;;;;;;;13.03;11.73;;;6.80;99.90;;;;;;6135820;23;20497;-87
2021/03/13 04:08:58;;;;;;;14.67;13.30;;;6.70;99.90;;;;;;6125697;23;20403;-90
2021/03/13 04:11:27;;;;;;;14.63;13.57;;;6.80;99.90;;;;;;6125976;23;20895;-80
2021/03/13 04:13:57;;;;;;;18.43;17.03;;;6.90;99.90;;;;;;6126761;23;20735;-80
2021/03/13 04:16:26;;;;;;;16.07;14.97;;;6.90;99.90;;;;;;6136485;23;20731;-81
2021/03/13 04:18:52;;;;;;;15.97;14.93;;;6.80;99.90;;;;;;6136406;23;20903;-80
2021/03/13 04:21:18;;;;;;;13.47;12.57;;;7.00;99.90;;;;;;6126973;23;20411;-80
2021/03/13 04:23:49;;;;;;;13.40;12.30;;;7.00;99.90;;;;;;6125312;23;20938;-80
2021/03/13 04:26:17;;;;;;;14.27;13.10;;;7.00;99.90;;;;;;6136116;23;20774;-80
2021/03/13 04:28:45;;;;;;;18.87;17.20;;;7.00;99.90;;;;;;6126818;23;20403;-80
2021/03/13 04:31:12;;;;;;;13.70;12.70;;;7.10;99.90;;;;;;6126274;23;20411;-81
2021/03/13 04:33:40;;;;;;;15.77;14.57;;;7.10;99.90;;;;;;6136209;23;20443;-80
2021/03/13 04:36:08;;;;;;;13.93;11.90;;;7.00;99.90;;;;;;6126772;23;20438;-80
2021/03/13 04:38:35;;;;;;;11.10;10.20;;;7.00;99.90;;;;;;6134943;23;20729;-81
2021/03/13 04:41:22;;;;;;;9.10;8.30;;;7.20;99.90;;;;;;6126193;23;20411;-82
2021/03/13 04:43:57;;;;;;;9.93;9.03;;;7.10;99.90;;;;;;6126429;23;20489;-82
2021/03/13 04:46:59;;;;;;;;;;;;;;;;;;;;;
2021/03/13 04:49:37;;;;;;;10.80;10.00;;;7.00;99.90;;;;;;6125943;23;20411;-82
2021/03/13 04:52:04;;;;;;;11.37;10.47;;;7.00;99.90;;;;;;6126130;23;20407;-81
2021/03/13 04:54:33;;;;;;;13.90;11.50;;;7.00;99.90;;;;;;6125010;23;20447;-81
2021/03/13 04:57:02;;;;;;;11.63;10.63;;;6.90;99.90;;;;;;6136147;23;20855;-81
2021/03/13 04:59:30;;;;;;;10.77;9.97;;;7.00;99.90;;;;;;6126480;23;20403;-81
2021/03/13 05:01:58;;;;;;;13.07;12.07;;;7.00;99.90;;;;;;6136659;23;20406;-82
2021/03/13 05:04:24;;;;;;;11.50;10.60;;;7.00;99.90;;;;;;6135958;23;20447;-82
2021/03/13 05:06:51;;;;;;;12.70;11.80;;;6.90;99.90;;;;;;6126410;23;20435;-81
2021/03/13 05:09:20;;;;;;;11.40;10.50;;;7.10;99.90;;;;;;6125313;23;20486;-82
2021/03/13 05:11:46;;;;;;;10.10;9.30;;;7.10;99.90;;;;;;6136006;23;20891;-82
2021/03/13 05:14:15;;;;;;;14.53;13.33;;;7.20;99.90;;;;;;6126428;23;20403;-81
2021/03/13 05:16:45;;;;;;;12.87;11.97;;;7.10;99.90;;;;;;6126405;23;20399;-82
2021/03/13 05:19:11;;;;;;;9.83;9.03;;;7.00;99.90;;;;;;6126077;23;20779;-82
2021/03/13 05:21:42;;;;;;;8.93;8.13;;;7.10;99.90;;;;;;6126153;23;20407;-82
2021/03/13 05:24:10;;;;;;;9.37;8.57;;;7.20;99.90;;;;;;6124719;23;20497;-82
2021/03/13 05:26:44;;;;;;;10.80;9.90;;;7.30;99.90;;;;;;6136130;23;20705;-82
2021/03/13 05:29:16;;;;;;;9.10;8.30;;;7.20;99.90;;;;;;6125773;23;20398;-82
2021/03/13 05:31:50;;;;;;;9.90;9.10;;;7.30;99.90;;;;;;6126129;23;20431;-82
2021/03/13 05:34:24;;;;;;;8.80;8.00;;;7.30;99.90;;;;;;6136112;23;20401;-82
2021/03/13 05:37:07;;;;;;;9.27;8.47;;;7.40;99.90;;;;;;6126047;23;20403;-82
2021/03/13 05:39:34;;;;;;;12.80;8.00;;;7.40;99.90;;;;;;6134765;23;20414;-82
2021/03/13 05:42:02;;;;;;;9.70;6.40;;;7.40;99.90;;;;;;6135530;23;20720;-81
2021/03/13 05:47:16;;;;;;;7.70;4.73;;;7.60;99.90;;;;;;6123985;23;20410;-81
2021/03/13 05:49:49;;;;;;;7.50;3.83;;;7.70;99.90;;;;;;6126281;23;20421;-82
2021/03/13 05:52:35;;;;;;;6.40;3.83;;;7.70;99.90;;;;;;6125590;23;20534;-82
2021/03/13 05:55:09;;;;;;;6.30;3.23;;;7.70;99.90;;;;;;6135643;23;20403;-82
2021/03/13 05:57:39;;;;;;;6.97;4.03;;;7.70;99.90;;;;;;6135779;23;20484;-84
2021/03/13 06:00:32;;;;;;;;;;;;;;;;;;;;;
2021/03/13 06:03:10;;;;;;;7.53;4.13;;;7.80;99.90;;;;;;6042838;23;20451;-82
2021/03/13 06:05:45;;;;;;;7.40;3.60;;;7.80;99.90;;;;;;6041241;23;20417;-83
2021/03/13 06:08:23;;;;;;;;;;;;;;;;;;;;;
2021/03/13 06:11:02;;;;;;;9.60;3.40;;;7.80;99.90;;;;;;6125328;23;20406;-82
2021/03/13 06:14:05;;;;;;;6.87;4.03;;;7.70;99.90;;;;;;6125815;23;20411;-83
2021/03/13 06:16:40;;;;;;;7.10;3.20;;;7.80;99.90;;;;;;6135743;23;20936;-84
2021/03/13 06:21:53;;;;;;;7.00;4.20;;;7.70;99.90;;;;;;6036174;23;20410;-76
2021/03/13 06:24:32;;;;;;;7.83;4.47;;;7.70;99.90;;;;;;6123739;23;21083;-83
2021/03/13 06:27:01;;;;;;;7.80;3.50;;;7.70;99.90;;;;;;6126404;23;20406;-82
2021/03/13 06:29:29;;;;;;;6.93;4.63;;;7.70;99.90;;;;;;6135410;23;20438;-78
2021/03/13 06:32:11;;;;;;;6.40;3.70;;;7.70;99.90;;;;;;6135821;23;20439;-83
2021/03/13 06:34:38;;;;;;;7.67;4.00;;;7.70;99.90;;;;;;6125547;23;20915;-82
2021/03/13 06:37:21;;;;;;;13.83;3.60;;;7.70;99.90;;;;;;6125796;23;20403;-81
2021/03/13 06:39:55;;;;;;;6.93;3.80;;;7.80;99.90;;;;;;6125553;23;20498;-81
2021/03/13 06:42:25;;;;;;;7.50;4.10;;;7.90;99.90;;;;;;6125964;23;20403;-81
2021/03/13 06:44:58;;;;;;;6.87;4.13;;;7.80;99.90;;;;;;6127514;23;20439;-81
2021/03/13 06:47:33;;;;;;;6.13;3.30;;;7.80;99.90;;;;;;6137081;23;20907;-81
2021/03/13 06:50:14;;;;;;;8.10;3.13;;;8.00;99.90;;;;;;6137340;23;20726;-82
2021/03/13 06:52:54;;;;;;;;;;;;;;;;;;;;;
2021/03/13 06:55:22;;;;;;;6.87;2.87;;;8.00;99.90;;;;;;6101194;23;20719;-82
2021/03/13 06:57:50;;;;;;;6.83;3.37;;;8.00;99.90;;;;;;6126671;23;20435;-80
2021/03/13 07:00:49;;;;;;;9.23;3.30;;;8.00;99.90;;;;;;6126934;23;20447;-83
2021/03/13 07:04:06;;;;;;;;;;;;;;;;;;;;;
2021/03/13 07:06:57;;;;;;;12.13;2.93;;;8.10;99.90;;;;;;6046669;23;20418;-83
2021/03/13 07:10:14;;;;;;;6.20;2.93;;;8.20;99.90;;;;;;6007950;23;20421;-83
2021/03/13 07:12:41;;;;;;;6.30;2.63;;;8.20;99.90;;;;;;6009983;23;20421;-83
2021/03/13 07:15:16;;;;;;;7.20;2.73;;;8.20;99.90;;;;;;6077484;23;20938;-82
2021/03/13 07:17:48;;;;;;;7.20;3.00;;;8.10;99.90;;;;;;6127492;23;20837;-82
2021/03/13 07:20:17;;;;;;;7.00;2.20;;;8.00;99.90;;;;;;6127217;23;20403;-82
2021/03/13 07:22:45;;;;;;;8.07;3.70;;;8.00;99.90;;;;;;6125514;23;20953;-80
2021/03/13 07:25:14;;;;;;;10.70;9.73;;;7.80;99.90;;;;;;6136774;23;20489;-80
2021/03/13 07:27:44;;;;;;;28.87;25.80;;;7.40;99.90;;;;;;6127153;23;20435;-81
2021/03/13 07:30:15;;;;;;;37.63;25.33;;;4.70;99.90;;;;;;6127028;23;20427;-80
2021/03/13 07:32:43;;;;;;;8.77;7.97;;;4.50;99.90;;;;;;6136815;23;20525;-80
2021/03/13 07:35:11;;;;;;;11.00;10.20;;;4.90;99.90;;;;;;6126894;23;20494;-80
2021/03/13 07:37:53;;;;;;;14.83;13.93;;;5.00;99.90;;;;;;6125735;23;20415;-81
2021/03/13 07:40:21;;;;;;;13.83;12.93;;;5.20;99.90;;;;;;6126761;23;20784;-81
2021/03/13 07:42:48;;;;;;;14.23;13.33;;;5.30;99.90;;;;;;6126804;23;20407;-80
2021/03/13 07:45:21;;;;;;;13.33;12.43;;;5.30;99.90;;;;;;6136394;23;20438;-82
2021/03/13 07:47:48;;;;;;;16.23;15.23;;;5.20;99.90;;;;;;6137233;23;20413;-80
2021/03/13 07:50:20;;;;;;;19.83;18.73;;;5.30;99.90;;;;;;6126841;23;20599;-82
2021/03/13 07:52:54;;;;;;;22.07;20.90;;;5.00;99.90;;;;;;6125379;23;20403;-81
2021/03/13 07:55:28;;;;;;;21.80;20.70;;;4.90;99.90;;;;;;6126759;23;20906;-82
2021/03/13 07:57:55;;;;;;;23.50;22.30;;;5.40;99.90;;;;;;6123876;23;20443;-82
2021/03/13 08:00:46;;;;;;;24.23;23.03;;;5.30;99.90;;;;;;6124395;23;20714;-82
2021/03/13 08:03:40;;;;;;;23.83;22.63;;;5.50;99.90;;;;;;6131346;23;20426;-82
2021/03/13 08:06:13;;;;;;;30.67;29.27;;;5.40;99.90;;;;;;6125121;23;20458;-82
2021/03/13 08:09:09;;;;;;;30.23;28.83;;;5.50;99.90;;;;;;6133074;23;20482;-82
2021/03/13 08:11:47;;;;;;;33.63;32.13;;;5.40;99.90;;;;;;6121792;23;20449;-82
2021/03/13 08:14:33;;;;;;;36.00;34.40;;;5.50;99.90;;;;;;6125277;23;20407;-81
2021/03/13 08:17:29;;;;;;;33.27;31.77;;;5.80;99.90;;;;;;6126646;23;20407;-82
2021/03/13 08:20:09;;;;;;;33.47;31.97;;;5.50;99.90;;;;;;6121133;23;20498;-80
2021/03/13 08:22:57;;;;;;;32.80;31.30;;;5.70;99.90;;;;;;6134652;23;20418;-82
2021/03/13 08:25:56;;;;;;;33.07;31.57;;;5.70;99.90;;;;;;6133320;23;20763;-81
2021/03/13 08:28:58;;;;;;;34.00;32.40;;;5.70;99.90;;;;;;6126390;23;20391;-82
2021/03/13 08:31:53;;;;;;;37.80;36.10;;;5.90;99.90;;;;;;6126633;23;20441;-82
2021/03/13 08:34:47;;;;;;;39.30;37.60;;;5.80;99.90;;;;;;6126426;23;20406;-82
2021/03/13 08:37:22;;;;;;;34.53;32.93;;;5.90;99.90;;;;;;6126719;23;20400;-81
2021/03/13 08:39:49;;;;;;;33.00;31.50;;;5.90;99.90;;;;;;6136706;23;20421;-81
2021/03/13 08:42:34;;;;;;;33.90;32.30;;;5.90;99.90;;;;;;6136007;23;20430;-81
2021/03/13 08:45:15;;;;;;;34.80;33.20;;;6.00;99.90;;;;;;6126582;23;20442;-81
2021/03/13 08:47:44;;;;;;;35.90;34.30;;;6.10;99.90;;;;;;6136140;23;20395;-81
2021/03/13 08:50:11;;;;;;;37.83;36.13;;;6.00;99.90;;;;;;6126689;23;20399;-81
2021/03/13 08:52:37;;;;;;;40.53;38.73;;;6.10;99.90;;;;;;6125038;23;20910;-80
2021/03/13 08:55:05;;;;;;;42.40;40.50;;;6.30;99.90;;;;;;6126297;23;21091;-81
2021/03/13 08:57:45;;;;;;;41.23;39.43;;;6.30;99.90;;;;;;6126087;23;20444;-80
2021/03/13 09:00:18;;;;;;;43.40;41.50;;;6.30;99.90;;;;;;6136010;23;20399;-80
2021/03/13 09:02:47;;;;;;;43.47;41.57;;;6.30;99.90;;;;;;6126228;23;20407;-81
2021/03/13 09:05:16;;;;;;;47.60;45.50;;;6.40;99.90;;;;;;6126307;23;20403;-81
2021/03/13 09:07:47;;;;;;;54.90;52.60;;;6.50;99.90;;;;;;6134742;23;20422;-82
2021/03/13 09:10:13;;;;;;;52.10;49.90;;;6.60;99.90;;;;;;6136357;23;20407;-81
2021/03/13 09:12:43;;;;;;;50.23;48.10;;;6.60;99.90;;;;;;6126563;23;20745;-81
2021/03/13 09:15:12;;;;;;;53.80;51.50;;;6.60;99.90;;;;;;6126496;23;20434;-81
2021/03/13 09:17:39;;;;;;;47.73;45.63;;;6.70;99.90;;;;;;6136334;23;20407;-82
2021/03/13 09:20:08;;;;;;;52.30;50.10;;;6.50;99.90;;;;;;6126094;23;20891;-81
2021/03/13 09:22:38;;;;;;;54.33;52.03;;;6.70;99.90;;;;;;6134660;23;20906;-81
2021/03/13 09:25:07;;;;;;;50.37;48.17;;;6.80;99.90;;;;;;6126086;23;21037;-81
2021/03/13 09:27:37;;;;;;;51.03;48.83;;;7.00;99.90;;;;;;6136159;23;20411;-81
2021/03/13 09:30:08;;;;;;;47.30;45.20;;;7.00;99.90;;;;;;6126420;23;20784;-82
2021/03/13 09:32:43;;;;;;;50.30;48.10;;;7.30;99.90;;;;;;6126443;23;20732;-81
2021/03/13 09:35:10;;;;;;;50.40;48.20;;;7.60;99.90;;;;;;6126479;23;20457;-82
2021/03/13 09:37:47;;;;;;;;;;;;;;;;;;;;;
2021/03/13 09:40:15;;;;;;;47.90;45.80;;;7.40;99.90;;;;;;6134502;23;20917;-81
2021/03/13 09:42:43;;;;;;;37.90;36.10;;;7.50;99.90;;;;;;6135980;23;20402;-81
2021/03/13 09:45:11;;;;;;;35.83;34.13;;;7.50;99.90;;;;;;6126487;23;20434;-80
2021/03/13 09:47:40;;;;;;;28.07;26.67;;;7.70;99.90;;;;;;6126050;23;20399;-82
2021/03/13 09:50:09;;;;;;;24.27;22.97;;;7.60;99.90;;;;;;6136254;23;20414;-82
2021/03/13 09:52:37;;;;;;;26.47;25.07;;;7.90;99.90;;;;;;6134535;23;20564;-81
2021/03/13 09:55:07;;;;;;;26.57;25.17;;;8.10;99.90;;;;;;6126508;23;20426;-81
2021/03/13 09:57:48;;;;;;;26.63;25.23;;;8.50;99.90;;;;;;6136053;23;20490;-82
2021/03/13 10:00:19;;;;;;;26.37;24.97;;;8.70;97.90;;;;;;6135921;23;20778;-82
2021/03/13 10:02:50;;;;;;;27.10;25.60;;;9.00;82.10;;;;;;6125926;23;20898;-82
2021/03/13 10:05:22;;;;;;;22.20;20.90;;;9.40;71.00;;;;;;6084656;23;20469;-82
2021/03/13 10:07:50;;;;;;;12.60;11.60;;;9.50;61.20;;;;;;6134139;23;20429;-82
2021/03/13 10:10:18;;;;;;;10.30;9.40;;;9.40;53.00;;;;;;6126421;23;20403;-82
2021/03/13 10:12:47;;;;;;;9.80;8.90;;;9.40;56.80;;;;;;6125972;23;20403;-82
2021/03/13 10:15:38;;;;;;;8.60;7.60;;;9.40;55.50;;;;;;6126345;23;20748;-82
2021/03/13 10:18:13;;;;;;;8.13;6.10;;;9.40;49.40;;;;;;6121863;23;20454;-82
2021/03/13 10:21:00;;;;;;;8.03;5.20;;;9.40;45.60;;;;;;6128129;23;20405;-83
2021/03/13 10:23:30;;;;;;;8.10;5.20;;;9.40;50.50;;;;;;6136285;23;20422;-83
2021/03/13 10:26:02;;;;;;;7.80;4.40;;;9.50;55.20;;;;;;6137502;23;20407;-82
2021/03/13 10:28:35;;;;;;;7.67;4.20;;;9.50;37.70;;;;;;6137515;23;20418;-83
2021/03/13 10:31:17;;;;;;;;;;;;;;;;;;;;;
2021/03/13 10:33:51;;;;;;;7.87;4.40;;;9.40;45.30;;;;;;6135033;23;20414;-81
2021/03/13 10:36:21;;;;;;;7.77;3.70;;;9.40;44.30;;;;;;6127718;23;20485;-81
2021/03/13 10:38:49;;;;;;;7.53;3.40;;;9.10;36.50;;;;;;6136232;23;20414;-81
2021/03/13 10:41:20;;;;;;;7.53;3.77;;;9.00;35.20;;;;;;6127712;23;20406;-81
2021/03/13 10:43:47;;;;;;;7.60;3.70;;;9.00;32.30;;;;;;6137409;23;20430;-81
2021/03/13 10:46:17;;;;;;;7.40;3.50;;;8.90;40.20;;;;;;6127707;23;20453;-81
2021/03/13 10:49:14;;;;;;;7.27;3.30;;;9.00;45.90;;;;;;6126975;23;20399;-80
2021/03/13 10:51:46;;;;;;;7.60;3.67;;;9.40;31.40;;;;;;6075883;23;20460;-81
2021/03/13 10:54:21;;;;;;;8.00;3.43;;;10.00;22.20;;;;;;6124316;23;20410;-80
2021/03/13 10:57:19;;;;;;;8.10;3.10;;;9.80;20.50;;;;;;6127361;23;20441;-81
2021/03/13 11:00:00;;;;;;;8.43;3.10;;;10.20;24.00;;;;;;6127657;23;20431;-82
2021/03/13 11:02:29;;;;;;;8.50;2.60;;;10.20;18.60;;;;;;6137211;23;20410;-82
2021/03/13 11:08:37;;;;;;;8.50;2.23;;;10.20;23.00;;;;;;6036408;23;20410;-82
2021/03/13 11:17:47;;;;;;;8.87;1.60;;;10.60;19.90;;;;;;6047378;23;20460;-81
2021/03/13 11:20:19;;;;;;;8.77;1.50;;;10.30;17.30;;;;;;6037672;23;20410;-81
2021/03/13 11:23:30;;;;;;;8.83;1.50;;;10.00;22.80;;;;;;6036200;23;20810;-82
2021/03/13 11:26:35;;;;;;;;;;;;;;;;;;;;;
2021/03/13 11:29:33;;;;;;;8.17;1.40;;;9.50;23.50;;;;;;6033760;23;20409;-82
2021/03/13 11:32:09;;;;;;;;;;;;;;;;;;;;;
2021/03/13 11:40:42;;;;;;;;;;;;;;;;;;;;;
2021/03/13 11:43:11;;;;;;;8.33;1.20;;;9.80;42.90;;;;;;6015502;23;20417;-81
2021/03/13 11:45:37;;;;;;;8.30;1.30;;;9.70;40.50;;;;;;6088949;23;20465;-80
2021/03/13 11:48:07;;;;;;;8.57;1.40;;;9.90;42.80;;;;;;6135130;23;20486;-81
2021/03/13 11:50:33;;;;;;;8.63;1.37;;;10.60;35.70;;;;;;6134948;23;20422;-81
2021/03/13 11:53:03;;;;;;;10.37;1.87;;;11.30;20.80;;;;;;6123722;23;20466;-82
2021/03/13 12:05:26;;;;;;;;;;;;;;;;;;;;;
2021/03/13 12:08:15;;;;;;;;;;;;;;;;;;;;;
2021/03/13 12:11:37;;;;;;;;;;;;;;;;;;;;;
2021/03/13 12:23:55;;;;;;;9.67;0.90;;;9.90;23.70;;;;;;5727752;24;20455;-79
2021/03/13 12:26:28;;;;;;;9.27;0.90;;;9.30;55.90;;;;;;6063796;23;20426;-81
2021/03/13 12:28:57;;;;;;;8.63;1.00;;;8.40;99.90;;;;;;6124216;23;20402;-81
2021/03/13 12:31:26;;;;;;;7.90;0.90;;;7.80;99.60;;;;;;6124242;23;20408;-81
2021/03/13 12:37:10;;;;;;;6.57;0.90;;;6.70;99.90;;;;;;6094548;23;20505;-81
2021/03/13 13:03:05;;;;;;;6.43;1.70;;;8.90;91.00;;;;;;5771995;24;20425;-81
2021/03/13 13:05:47;;;;;;;6.70;1.50;;;9.20;61.30;;;;;;5817344;24;20444;-82
2021/03/13 13:08:16;;;;;;;6.83;1.70;;;9.10;56.90;;;;;;5882703;24;20465;-80
2021/03/13 13:14:09;;;;;;;7.00;1.73;;;9.00;61.90;;;;;;5858719;24;20861;-81
2021/03/13 13:16:38;;;;;;;6.90;1.60;;;9.10;61.20;;;;;;5924940;24;20734;-81
2021/03/13 13:19:06;;;;;;;7.07;2.20;;;9.10;67.80;;;;;;5950634;23;20411;-80
2021/03/13 13:56:28;;;;;;;766.37;139.33;;;7.80;94.90;;;;;;5861904;24;20426;-83
2021/03/13 14:36:18;;;;;;;14.37;3.67;;;9.20;57.10;;;;;;5773546;24;20170;-82
2021/03/13 15:15:58;;;;;;;66.80;38.27;;;11.30;13.40;;;;;;5692179;25;20426;-83
2021/03/13 18:06:35;;;;;;;32.33;12.30;;;8.00;19.20;;;;;;6134531;23;20386;-82
